TAF Text Data
IDs:
Format:
Raw Decoded Include METAR

Data at: 2122 UTC 01 Oct 2022

VDPP 012100Z 08001KT 9000 SCT015 BKN040 26/26 Q1006

TAF VDPP 011700Z 0118/0212 22006KT 9999 SCT017 SCT040
  TEMPO 0206/0211 5000 TSRA SCT015 FEW017CB SCT040